createdAt,value
2023-05-10T00:00:20.739Z,35.63
2023-05-10T00:01:20.774Z,35.54
2023-05-10T00:02:20.835Z,35.59
2023-05-10T00:03:20.972Z,35.59
2023-05-10T00:04:20.957Z,35.56
2023-05-10T00:05:20.971Z,35.57
2023-05-10T00:06:20.996Z,35.55
2023-05-10T00:07:21.053Z,35.50
2023-05-10T00:08:21.111Z,35.54
2023-05-10T00:09:21.153Z,35.56
2023-05-10T00:10:21.207Z,35.65
2023-05-10T00:11:22.867Z,35.62
2023-05-10T00:12:21.273Z,35.65
2023-05-10T00:13:21.366Z,35.67
2023-05-10T00:14:21.305Z,35.63
2023-05-10T00:15:21.324Z,35.62
2023-05-10T00:16:21.393Z,35.60
2023-05-10T00:17:21.368Z,35.61
2023-05-10T00:18:21.401Z,35.62
2023-05-10T00:19:21.399Z,35.70
2023-05-10T00:20:21.421Z,35.69
2023-05-10T00:21:21.456Z,35.73
2023-05-10T00:22:21.447Z,35.71
2023-05-10T00:23:21.467Z,35.67
2023-05-10T00:24:21.471Z,35.64
2023-05-10T00:25:21.485Z,35.58
2023-05-10T00:26:21.509Z,35.62
2023-05-10T00:27:21.544Z,35.69
2023-05-10T00:28:21.528Z,35.73
2023-05-10T00:29:21.562Z,35.76
2023-05-10T00:30:21.567Z,35.78
2023-05-10T00:31:21.574Z,35.81
2023-05-10T00:32:21.702Z,35.81
2023-05-10T00:33:21.598Z,35.78
2023-05-10T00:34:21.610Z,35.78
2023-05-10T00:35:21.613Z,35.79
2023-05-10T00:36:21.627Z,35.77
2023-05-10T00:37:21.630Z,35.77
2023-05-10T00:38:21.649Z,35.77
2023-05-10T00:39:21.670Z,35.75
2023-05-10T00:40:21.687Z,35.82
2023-05-10T00:41:21.695Z,35.83
2023-05-10T00:42:21.704Z,35.82
2023-05-10T00:43:21.723Z,35.85
2023-05-10T00:44:21.738Z,35.83
2023-05-10T00:45:21.820Z,35.85
2023-05-10T00:46:21.931Z,35.87
2023-05-10T00:47:21.970Z,35.88
2023-05-10T00:48:21.983Z,35.84
2023-05-10T00:49:22.058Z,35.83
2023-05-10T00:50:22.140Z,35.86
2023-05-10T00:51:22.188Z,35.85
2023-05-10T00:52:22.256Z,35.88
2023-05-10T00:53:22.320Z,35.89
2023-05-10T00:54:22.392Z,35.90
2023-05-10T00:55:22.465Z,35.86
2023-05-10T00:56:22.536Z,35.89
2023-05-10T00:57:22.597Z,35.83
2023-05-10T00:58:22.673Z,35.87
2023-05-10T00:59:22.739Z,35.86
2023-05-10T01:00:22.800Z,35.81
2023-05-10T01:01:22.914Z,35.87
2023-05-10T01:02:22.955Z,35.87
2023-05-10T01:03:23.110Z,35.85
2023-05-10T01:04:23.051Z,35.89
2023-05-10T01:05:23.176Z,35.93
2023-05-10T01:06:23.186Z,35.89
2023-05-10T01:07:23.255Z,35.89
2023-05-10T01:08:23.322Z,35.92
2023-05-10T01:09:23.407Z,35.94
2023-05-10T01:10:23.452Z,35.91
2023-05-10T01:11:23.528Z,35.91
2023-05-10T01:12:23.610Z,35.87
2023-05-10T01:13:23.693Z,35.95
2023-05-10T01:14:23.747Z,35.90
2023-05-10T01:15:23.792Z,35.91
2023-05-10T01:16:23.966Z,35.89
2023-05-10T01:17:24.001Z,35.90
2023-05-10T01:18:24.017Z,35.94
2023-05-10T01:19:24.086Z,35.97
2023-05-10T01:20:24.170Z,35.91
2023-05-10T01:21:24.226Z,35.89
2023-05-10T01:22:24.303Z,35.92
2023-05-10T01:23:24.377Z,35.94
2023-05-10T01:24:24.437Z,35.93
2023-05-10T01:25:24.517Z,35.90
2023-05-10T01:26:24.592Z,35.97
2023-05-10T01:27:24.662Z,35.97
2023-05-10T01:28:24.736Z,36.00
2023-05-10T01:29:24.810Z,35.96
2023-05-10T01:30:25.057Z,36.00
2023-05-10T01:31:25.008Z,36.00
2023-05-10T01:32:25.041Z,36.01
2023-05-10T01:33:25.122Z,35.97
2023-05-10T01:34:25.158Z,36.01
2023-05-10T01:35:25.230Z,36.02
2023-05-10T01:36:25.302Z,35.96
2023-05-10T01:37:25.367Z,36.00
2023-05-10T01:38:25.436Z,36.00
2023-05-10T01:39:25.519Z,36.02
2023-05-10T01:40:26.283Z,36.04
2023-05-10T01:41:25.655Z,36.07
2023-05-10T01:42:25.725Z,36.02
2023-05-10T01:43:25.832Z,36.04
2023-05-10T01:44:25.889Z,36.06
2023-05-10T01:45:25.937Z,36.03
2023-05-10T01:46:26.092Z,36.03
2023-05-10T01:47:26.113Z,36.06
2023-05-10T01:48:26.171Z,36.03
2023-05-10T01:49:26.263Z,36.06
2023-05-10T01:50:26.306Z,36.03
2023-05-10T01:51:26.374Z,36.04
2023-05-10T01:52:26.450Z,36.11
2023-05-10T01:53:26.598Z,36.07
2023-05-10T01:54:26.591Z,36.12
2023-05-10T01:55:26.649Z,36.06
2023-05-10T01:56:26.717Z,36.15
2023-05-10T01:57:26.779Z,36.07
2023-05-10T01:58:26.853Z,36.11
2023-05-10T01:59:26.915Z,36.12
2023-05-10T02:00:26.985Z,36.08
2023-05-10T02:01:27.065Z,36.11
2023-05-10T02:02:27.166Z,36.12
2023-05-10T02:03:27.215Z,36.11
2023-05-10T02:04:27.263Z,36.12
2023-05-10T02:05:27.366Z,36.09
2023-05-10T02:06:27.401Z,36.07
2023-05-10T02:07:27.482Z,36.09
2023-05-10T02:08:27.561Z,36.10
2023-05-10T02:09:27.623Z,36.09
2023-05-10T02:10:27.700Z,36.13
2023-05-10T02:11:27.768Z,36.14
2023-05-10T02:12:27.852Z,36.13
2023-05-10T02:13:27.998Z,36.15
2023-05-10T02:14:27.999Z,36.16
2023-05-10T02:15:28.071Z,36.14
2023-05-10T02:16:28.157Z,36.13
2023-05-10T02:17:28.210Z,36.18
2023-05-10T02:18:28.282Z,36.15
2023-05-10T02:19:28.341Z,36.21
2023-05-10T02:20:28.428Z,36.18
2023-05-10T02:21:28.512Z,36.16
2023-05-10T02:22:28.566Z,36.23
2023-05-10T02:23:28.642Z,36.19
2023-05-10T02:24:28.723Z,36.19
2023-05-10T02:25:28.802Z,36.16
2023-05-10T02:26:28.873Z,36.18
2023-05-10T02:27:28.950Z,36.19
2023-05-10T02:28:29.030Z,36.20
2023-05-10T02:29:29.100Z,36.18
2023-05-10T02:30:29.186Z,36.19
2023-05-10T02:31:29.343Z,36.20
2023-05-10T02:32:29.356Z,36.19
2023-05-10T02:33:29.424Z,36.20
2023-05-10T02:34:29.491Z,36.19
2023-05-10T02:35:29.584Z,36.22
2023-05-10T02:36:29.666Z,36.25
2023-05-10T02:37:29.762Z,36.21
2023-05-10T02:38:29.823Z,36.22
2023-05-10T02:39:29.903Z,36.21
2023-05-10T02:40:29.982Z,36.24
2023-05-10T02:41:30.058Z,36.22
2023-05-10T02:42:30.150Z,36.25
2023-05-10T02:43:30.234Z,36.22
2023-05-10T02:44:30.307Z,36.21
2023-05-10T02:45:30.395Z,36.22
2023-05-10T02:46:30.534Z,36.25
2023-05-10T02:47:30.569Z,36.27
2023-05-10T02:48:30.634Z,36.22
2023-05-10T02:49:30.720Z,36.25
2023-05-10T02:50:30.796Z,36.25
2023-05-10T02:51:30.884Z,36.26
2023-05-10T02:52:30.968Z,36.31
2023-05-10T02:53:31.093Z,36.29
2023-05-10T02:54:31.133Z,36.27
2023-05-10T02:55:31.222Z,36.26
2023-05-10T02:56:31.301Z,36.26
2023-05-10T02:57:31.389Z,36.29
2023-05-10T02:58:31.460Z,36.33
2023-05-10T02:59:31.546Z,36.30
2023-05-10T03:00:31.630Z,36.27
2023-05-10T03:01:31.778Z,36.30
2023-05-10T03:02:31.964Z,36.32
2023-05-10T03:03:31.890Z,36.27
2023-05-10T03:04:31.990Z,36.33
2023-05-10T03:05:32.068Z,36.30
2023-05-10T03:06:32.133Z,36.32
2023-05-10T03:07:32.208Z,36.34
2023-05-10T03:08:32.295Z,36.31
2023-05-10T03:09:32.402Z,36.31
2023-05-10T03:10:32.476Z,36.35
2023-05-10T03:11:32.552Z,36.32
2023-05-10T03:12:32.647Z,36.30
2023-05-10T03:13:32.862Z,36.32
2023-05-10T03:14:32.823Z,36.36
2023-05-10T03:15:32.908Z,36.30
2023-05-10T03:16:33.111Z,36.35
2023-05-10T03:17:33.095Z,36.31
2023-05-10T03:18:33.157Z,36.36
2023-05-10T03:19:33.269Z,36.36
2023-05-10T03:20:33.325Z,36.36
2023-05-10T03:21:33.409Z,36.35
2023-05-10T03:22:33.502Z,36.38
2023-05-10T03:23:33.591Z,36.38
2023-05-10T03:24:33.669Z,36.37
2023-05-10T03:25:33.776Z,36.37
2023-05-10T03:26:33.855Z,36.37
2023-05-10T03:27:33.973Z,36.42
2023-05-10T03:28:34.028Z,36.41
2023-05-10T03:29:34.108Z,36.42
2023-05-10T03:30:34.191Z,36.38
2023-05-10T03:31:34.326Z,36.41
2023-05-10T03:32:34.390Z,36.39
2023-05-10T03:33:35.336Z,36.41
2023-05-10T03:34:34.553Z,36.42
2023-05-10T03:35:34.633Z,36.42
2023-05-10T03:36:34.720Z,36.41
2023-05-10T03:37:34.810Z,36.47
2023-05-10T03:38:34.882Z,36.41
2023-05-10T03:39:34.982Z,36.42
2023-05-10T03:40:35.067Z,36.43
2023-05-10T03:41:35.178Z,36.44
2023-05-10T03:42:35.244Z,36.42
2023-05-10T03:43:35.320Z,36.41
2023-05-10T03:44:35.407Z,36.45
2023-05-10T03:45:35.482Z,36.43
2023-05-10T03:46:35.623Z,36.47
2023-05-10T03:47:35.663Z,36.48
2023-05-10T03:48:35.756Z,36.47
2023-05-10T03:49:35.849Z,36.46
2023-05-10T03:50:35.930Z,36.48
2023-05-10T03:51:36.004Z,36.48
2023-05-10T03:52:36.091Z,36.49
2023-05-10T03:53:36.177Z,36.47
2023-05-10T03:54:36.243Z,36.46
2023-05-10T03:55:36.309Z,36.47
2023-05-10T03:56:36.380Z,36.47
2023-05-10T03:57:36.458Z,36.46
2023-05-10T03:58:36.471Z,36.50
2023-05-10T03:59:36.565Z,36.49
2023-05-10T04:00:36.554Z,36.49
2023-05-10T04:01:36.757Z,36.52
2023-05-10T04:02:36.928Z,36.48
2023-05-10T04:03:36.853Z,36.50
2023-05-10T04:04:36.819Z,36.48
2023-05-10T04:05:36.871Z,36.48
2023-05-10T04:06:36.964Z,36.52
2023-05-10T04:07:36.982Z,36.52
2023-05-10T04:08:37.036Z,36.52
2023-05-10T04:09:37.067Z,36.50
2023-05-10T04:10:37.123Z,36.52
2023-05-10T04:11:37.208Z,36.49
2023-05-10T04:12:37.228Z,36.52
2023-05-10T04:13:37.337Z,36.56
2023-05-10T04:14:37.350Z,36.55
2023-05-10T04:15:37.428Z,36.50
2023-05-10T04:16:37.655Z,36.50
2023-05-10T04:17:37.614Z,36.51
2023-05-10T04:18:37.650Z,36.50
2023-05-10T04:19:37.718Z,36.49
2023-05-10T04:20:37.793Z,36.54
2023-05-10T04:21:37.845Z,36.49
2023-05-10T04:22:37.906Z,36.53
2023-05-10T04:23:37.980Z,36.50
2023-05-10T04:24:38.058Z,36.51
2023-05-10T04:25:38.133Z,36.54
2023-05-10T04:26:38.192Z,36.51
2023-05-10T04:27:38.269Z,36.51
2023-05-10T04:28:38.344Z,36.56
2023-05-10T04:29:38.434Z,36.58
2023-05-10T04:30:38.535Z,36.50
2023-05-10T04:31:38.546Z,36.56
2023-05-10T04:32:38.658Z,36.55
2023-05-10T04:33:38.693Z,36.60
2023-05-10T04:34:38.759Z,36.52
2023-05-10T04:35:38.859Z,36.58
2023-05-10T04:36:38.881Z,36.55
2023-05-10T04:37:38.952Z,36.53
2023-05-10T04:38:38.986Z,36.57
2023-05-10T04:39:40.965Z,36.50
2023-05-10T04:40:39.049Z,36.52
2023-05-10T04:41:39.126Z,36.56
2023-05-10T04:42:39.071Z,36.55
2023-05-10T04:43:39.266Z,36.55
2023-05-10T04:44:39.141Z,36.53
2023-05-10T04:45:39.140Z,36.56
2023-05-10T04:46:39.186Z,36.59
2023-05-10T04:47:39.206Z,36.54
2023-05-10T04:48:39.181Z,36.59
2023-05-10T04:49:39.300Z,36.57
2023-05-10T04:50:39.202Z,36.63
2023-05-10T04:51:39.185Z,36.62
2023-05-10T04:52:39.200Z,36.58
2023-05-10T04:53:39.852Z,36.55
2023-05-10T04:54:39.379Z,36.60
2023-05-10T04:55:39.248Z,36.62
2023-05-10T04:56:39.260Z,36.63
2023-05-10T04:57:39.280Z,36.58
2023-05-10T04:58:39.287Z,36.62
2023-05-10T04:59:39.305Z,36.56
2023-05-10T05:00:39.327Z,36.60
2023-05-10T05:01:39.917Z,36.60
2023-05-10T05:02:39.437Z,36.61
2023-05-10T05:03:39.436Z,36.60
2023-05-10T05:04:39.368Z,36.57
2023-05-10T05:05:39.379Z,36.60
2023-05-10T05:06:39.433Z,36.59
2023-05-10T05:07:39.391Z,36.60
2023-05-10T05:08:40.352Z,36.59
2023-05-10T05:09:39.434Z,36.87
2023-05-10T05:10:39.439Z,37.24
2023-05-10T05:11:39.462Z,37.41
2023-05-10T05:12:39.479Z,37.49
2023-05-10T05:13:39.485Z,37.59
2023-05-10T05:14:39.508Z,37.52
2023-05-10T05:15:39.519Z,37.57
2023-05-10T05:16:39.606Z,37.70
2023-05-10T05:17:39.615Z,37.79
2023-05-10T05:18:39.559Z,37.90
2023-05-10T05:19:39.891Z,37.97
2023-05-10T05:20:39.860Z,38.13
2023-05-10T05:21:39.590Z,38.15
2023-05-10T05:22:39.613Z,38.10
2023-05-10T05:23:39.671Z,38.09
2023-05-10T05:24:39.802Z,38.15
2023-05-10T05:25:39.809Z,38.05
2023-05-10T05:26:39.840Z,38.16
2023-05-10T05:27:39.912Z,38.24
2023-05-10T05:28:39.928Z,38.26
2023-05-10T05:29:40.005Z,38.36
2023-05-10T05:30:40.066Z,38.29
2023-05-10T05:31:40.154Z,38.35
2023-05-10T05:32:40.175Z,38.38
2023-05-10T05:33:41.214Z,38.43
2023-05-10T05:34:40.237Z,38.49
2023-05-10T05:35:40.289Z,38.50
2023-05-10T05:36:40.358Z,38.62
2023-05-10T05:37:40.433Z,38.58
2023-05-10T05:38:40.496Z,38.66
2023-05-10T05:39:40.566Z,38.71
2023-05-10T05:40:40.648Z,38.88
2023-05-10T05:41:40.707Z,38.95
2023-05-10T05:42:40.745Z,39.04
2023-05-10T05:43:40.792Z,39.05
2023-05-10T05:44:41.370Z,39.02
2023-05-10T05:45:40.999Z,39.11
2023-05-10T05:46:41.060Z,39.19
2023-05-10T05:47:41.180Z,39.23
2023-05-10T05:48:41.173Z,39.21
2023-05-10T05:49:42.399Z,39.36
2023-05-10T05:50:41.368Z,39.33
2023-05-10T05:51:41.390Z,39.38
2023-05-10T05:52:41.436Z,39.45
2023-05-10T05:53:41.502Z,39.44
2023-05-10T05:54:41.881Z,39.52
2023-05-10T05:55:41.631Z,39.47
2023-05-10T05:56:41.675Z,39.54
2023-05-10T05:57:41.939Z,39.53
2023-05-10T05:58:41.812Z,39.52
2023-05-10T05:59:42.378Z,39.62
2023-05-10T06:00:41.973Z,39.59
2023-05-10T06:01:42.042Z,39.68
2023-05-10T06:02:49.555Z,39.73
2023-05-10T06:03:42.186Z,39.76
2023-05-10T06:04:44.683Z,39.82
2023-05-10T06:05:42.134Z,39.76
2023-05-10T06:06:42.195Z,39.77
2023-05-10T06:07:42.397Z,39.77
2023-05-10T06:08:42.185Z,39.90
2023-05-10T06:09:42.206Z,39.90
2023-05-10T06:10:42.240Z,39.86
2023-05-10T06:11:42.259Z,39.91
2023-05-10T06:12:42.409Z,39.95
2023-05-10T06:13:42.882Z,39.99
2023-05-10T06:14:42.376Z,40.02
2023-05-10T06:15:42.350Z,40.06
2023-05-10T06:16:42.410Z,40.02
2023-05-10T06:17:42.402Z,40.06
2023-05-10T06:18:42.422Z,40.10
2023-05-10T06:19:42.442Z,40.07
2023-05-10T06:20:42.443Z,40.20
2023-05-10T06:21:42.491Z,40.14
2023-05-10T06:22:42.490Z,40.15
2023-05-10T06:23:42.524Z,40.20
2023-05-10T06:24:42.887Z,40.27
2023-05-10T06:25:42.563Z,40.29
2023-05-10T06:26:42.629Z,40.27
2023-05-10T06:27:42.589Z,40.29
2023-05-10T06:28:42.614Z,40.28
2023-05-10T06:29:42.891Z,40.29
2023-05-10T06:30:42.673Z,40.26
2023-05-10T06:31:42.697Z,40.25
2023-05-10T06:32:42.739Z,40.21
2023-05-10T06:33:42.737Z,40.25
2023-05-10T06:34:42.898Z,40.21
2023-05-10T06:35:42.757Z,40.23
2023-05-10T06:36:43.388Z,40.21
2023-05-10T06:37:42.826Z,40.30
2023-05-10T06:38:42.892Z,40.28
2023-05-10T06:39:42.849Z,40.25
2023-05-10T06:40:42.883Z,40.30
2023-05-10T06:41:42.903Z,40.28
2023-05-10T06:42:42.950Z,40.25
2023-05-10T06:43:43.025Z,40.25
2023-05-10T06:44:43.406Z,40.29
2023-05-10T06:45:43.929Z,40.28
2023-05-10T06:46:43.275Z,40.31
2023-05-10T06:47:44.240Z,40.27
2023-05-10T06:48:43.424Z,40.29
2023-05-10T06:49:43.285Z,40.23
2023-05-10T06:50:43.404Z,40.20
2023-05-10T06:51:44.367Z,40.21
2023-05-10T06:52:44.067Z,40.20
2023-05-10T06:53:43.504Z,40.26
2023-05-10T06:55:43.587Z,40.19
2023-05-10T06:56:43.597Z,40.19
2023-05-10T06:57:43.656Z,40.19
2023-05-10T06:58:43.658Z,40.07
2023-05-10T06:59:43.660Z,40.09
2023-05-10T07:00:46.950Z,40.09
2023-05-10T07:01:43.769Z,40.11
2023-05-10T07:02:43.767Z,40.11
2023-05-10T07:03:43.733Z,40.18
2023-05-10T07:04:43.957Z,40.17
2023-05-10T07:05:43.813Z,40.20
2023-05-10T07:06:43.777Z,40.11
2023-05-10T07:07:43.805Z,40.17
2023-05-10T07:08:43.832Z,40.16
2023-05-10T07:09:43.862Z,40.16
2023-05-10T07:10:43.856Z,40.16
2023-05-10T07:11:43.863Z,40.15
2023-05-10T07:12:43.935Z,40.15
2023-05-10T07:13:43.952Z,40.20
2023-05-10T07:14:44.407Z,40.14
2023-05-10T07:15:43.993Z,40.07
2023-05-10T07:16:44.457Z,40.07
2023-05-10T07:17:45.802Z,40.04
2023-05-10T07:18:44.112Z,40.10
2023-05-10T07:19:44.061Z,40.10
2023-05-10T07:20:44.082Z,40.10
2023-05-10T07:21:44.107Z,40.03
2023-05-10T07:22:44.140Z,40.01
2023-05-10T07:23:45.222Z,40.01
2023-05-10T07:24:44.177Z,39.98
2023-05-10T07:25:44.228Z,39.97
2023-05-10T07:26:44.477Z,39.90
2023-05-10T07:27:44.248Z,39.90
2023-05-10T07:28:44.408Z,39.86
2023-05-10T07:29:44.289Z,39.86
2023-05-10T07:30:44.360Z,39.90
2023-05-10T07:31:44.471Z,39.92
2023-05-10T07:32:44.389Z,39.92
2023-05-10T07:33:44.421Z,39.93
2023-05-10T07:34:44.438Z,39.96
2023-05-10T07:35:44.472Z,39.85
2023-05-10T07:36:44.500Z,39.71
2023-05-10T07:37:47.700Z,39.58
2023-05-10T07:38:44.520Z,39.68
2023-05-10T07:39:44.922Z,39.69
2023-05-10T07:40:44.583Z,39.77
2023-05-10T07:41:45.618Z,39.65
2023-05-10T07:42:44.616Z,39.63
2023-05-10T07:43:44.639Z,39.66
2023-05-10T07:44:44.944Z,39.68
2023-05-10T07:45:44.930Z,39.73
2023-05-10T07:46:44.703Z,39.64
2023-05-10T07:47:44.824Z,39.59
2023-05-10T07:48:44.793Z,39.60
2023-05-10T07:49:44.948Z,39.57
2023-05-10T07:50:44.912Z,39.54
2023-05-10T07:51:45.109Z,39.62
2023-05-10T07:52:44.998Z,39.59
2023-05-10T07:53:44.887Z,39.58
2023-05-10T07:54:45.413Z,39.53
2023-05-10T07:55:44.946Z,39.53
2023-05-10T07:57:16.874Z,39.59
2023-05-10T07:57:45.447Z,39.65
2023-05-10T07:58:45.025Z,39.60
2023-05-10T07:59:45.450Z,39.59
2023-05-10T08:00:45.080Z,39.58
2023-05-10T08:01:45.418Z,39.60
2023-05-10T08:02:45.271Z,39.64
2023-05-10T08:03:45.218Z,39.66
2023-05-10T08:04:45.452Z,39.63
2023-05-10T08:05:45.248Z,39.65
2023-05-10T08:06:45.419Z,39.71
2023-05-10T08:07:45.401Z,39.64
2023-05-10T08:08:52.721Z,39.63
2023-05-10T08:09:45.360Z,39.63
2023-05-10T08:10:45.358Z,39.63
2023-05-10T08:11:45.386Z,39.60
2023-05-10T08:12:45.438Z,39.63
2023-05-10T08:13:45.459Z,39.58
2023-05-10T08:14:45.926Z,39.52
2023-05-10T08:15:45.533Z,39.44
2023-05-10T08:16:45.522Z,39.39
2023-05-10T08:17:45.594Z,39.40
2023-05-10T08:18:45.627Z,39.39
2023-05-10T08:19:45.929Z,39.32
2023-05-10T08:20:45.646Z,39.29
2023-05-10T08:21:45.664Z,39.34
2023-05-10T08:22:46.769Z,39.34
2023-05-10T08:23:45.722Z,39.35
2023-05-10T08:24:45.921Z,39.35
2023-05-10T08:25:45.770Z,39.43
2023-05-10T08:26:45.819Z,39.45
2023-05-10T08:27:45.824Z,39.42
2023-05-10T08:28:45.856Z,39.41
2023-05-10T08:29:50.108Z,39.41
2023-05-10T08:30:45.868Z,39.36
2023-05-10T08:31:45.909Z,39.40
2023-05-10T08:32:45.960Z,39.40
2023-05-10T08:33:45.942Z,39.36
2023-05-10T08:34:46.421Z,39.50
2023-05-10T08:35:46.018Z,39.55
2023-05-10T08:36:46.061Z,39.60
2023-05-10T08:37:46.068Z,39.73
2023-05-10T08:38:46.083Z,39.71
2023-05-10T08:39:46.470Z,39.69
2023-05-10T08:40:47.129Z,39.67
2023-05-10T08:41:46.428Z,39.64
2023-05-10T08:42:46.149Z,39.58
2023-05-10T08:43:49.436Z,39.58
2023-05-10T08:44:49.348Z,39.53
2023-05-10T08:45:46.461Z,39.56
2023-05-10T08:46:46.278Z,39.60
2023-05-10T08:47:46.343Z,39.62
2023-05-10T08:48:46.282Z,39.65
2023-05-10T08:49:46.444Z,39.57
2023-05-10T08:50:46.460Z,39.54
2023-05-10T08:51:46.354Z,39.63
2023-05-10T08:52:46.373Z,39.53
2023-05-10T08:53:46.457Z,39.66
2023-05-10T08:54:46.454Z,39.63
2023-05-10T08:55:46.452Z,39.58
2023-05-10T08:56:48.628Z,39.63
2023-05-10T08:57:46.486Z,39.66
2023-05-10T08:58:46.939Z,39.66
2023-05-10T08:59:46.617Z,39.69
2023-05-10T09:00:46.959Z,39.71
2023-05-10T09:01:46.528Z,39.76
2023-05-10T09:02:46.565Z,39.76
2023-05-10T09:03:46.604Z,39.71
2023-05-10T09:04:47.024Z,39.77
2023-05-10T09:05:46.613Z,39.81
2023-05-10T09:06:46.617Z,39.80
2023-05-10T09:07:47.273Z,39.77
2023-05-10T09:08:46.657Z,39.77
2023-05-10T09:09:46.681Z,39.73
2023-05-10T09:10:46.942Z,39.71
2023-05-10T09:11:46.706Z,39.75
2023-05-10T09:12:46.731Z,39.82
2023-05-10T09:13:46.760Z,39.82
2023-05-10T09:14:47.732Z,39.81
2023-05-10T09:15:46.967Z,39.85
2023-05-10T09:16:46.847Z,39.89
2023-05-10T09:17:46.856Z,39.81
2023-05-10T09:18:46.928Z,39.79
2023-05-10T09:19:47.865Z,39.78
2023-05-10T09:20:46.946Z,39.84
2023-05-10T09:21:46.921Z,39.80
2023-05-10T09:22:46.933Z,39.79
2023-05-10T09:23:48.451Z,39.74
2023-05-10T09:24:46.959Z,39.64
2023-05-10T09:25:47.475Z,39.72
2023-05-10T09:26:46.967Z,39.73
2023-05-10T09:27:46.991Z,39.80
2023-05-10T09:28:46.991Z,39.80
2023-05-10T09:29:47.453Z,39.85
2023-05-10T09:30:47.090Z,39.78
2023-05-10T09:31:47.108Z,39.78
2023-05-10T09:32:47.760Z,39.72
2023-05-10T09:33:47.068Z,39.69
2023-05-10T09:34:47.452Z,39.62
2023-05-10T09:35:47.452Z,39.67
2023-05-10T09:36:47.109Z,39.50
2023-05-10T09:37:47.164Z,39.54
2023-05-10T09:38:47.459Z,39.57
2023-05-10T09:39:47.171Z,39.62
2023-05-10T09:40:47.191Z,39.62
2023-05-10T09:41:47.955Z,39.57
2023-05-10T09:42:47.225Z,39.55
2023-05-10T09:43:47.240Z,39.54
2023-05-10T09:44:47.279Z,39.55
2023-05-10T09:45:47.465Z,39.47
2023-05-10T09:46:47.309Z,39.43
2023-05-10T09:47:47.392Z,39.39
2023-05-10T09:48:47.341Z,39.51
2023-05-10T09:49:47.453Z,39.51
2023-05-10T09:50:47.379Z,39.47
2023-05-10T09:51:47.400Z,39.48
2023-05-10T09:52:47.427Z,39.51
2023-05-10T09:53:47.468Z,39.50
2023-05-10T09:54:47.456Z,39.38
2023-05-10T09:56:03.078Z,39.39
2023-05-10T09:56:47.958Z,39.40
2023-05-10T09:57:47.506Z,39.49
2023-05-10T09:58:47.519Z,39.42
2023-05-10T09:59:47.553Z,39.43
2023-05-10T10:00:47.962Z,39.32
2023-05-10T10:01:47.627Z,39.38
2023-05-10T10:02:47.650Z,39.33
2023-05-10T10:03:47.673Z,39.26
2023-05-10T10:04:47.665Z,39.20
2023-05-10T10:05:47.981Z,39.14
2023-05-10T10:06:47.675Z,39.03
2023-05-10T10:07:47.694Z,39.11
2023-05-10T10:08:47.720Z,39.17
2023-05-10T10:09:47.963Z,39.14
2023-05-10T10:10:47.772Z,39.03
2023-05-10T10:11:47.793Z,39.02
2023-05-10T10:12:47.803Z,38.97
2023-05-10T10:13:47.827Z,38.83
2023-05-10T10:14:47.876Z,38.87
2023-05-10T10:15:47.987Z,38.87
2023-05-10T10:16:59.883Z,38.88
2023-05-10T10:17:48.039Z,38.84
2023-05-10T10:18:48.545Z,38.75
2023-05-10T10:19:48.031Z,38.79
2023-05-10T10:20:48.473Z,38.92
2023-05-10T10:21:48.041Z,38.94
2023-05-10T10:22:48.068Z,38.92
2023-05-10T10:23:48.096Z,38.93
2023-05-10T10:24:48.108Z,38.88
2023-05-10T10:25:48.471Z,38.93
2023-05-10T10:26:48.140Z,38.92
2023-05-10T10:27:48.159Z,38.93
2023-05-10T10:28:48.176Z,39.01
2023-05-10T10:29:48.196Z,39.02
2023-05-10T10:30:48.478Z,39.04
2023-05-10T10:31:48.293Z,39.02
2023-05-10T10:32:48.255Z,39.00
2023-05-10T10:33:48.435Z,39.03
2023-05-10T10:34:48.284Z,39.00
2023-05-10T10:35:48.512Z,39.01
2023-05-10T10:36:48.322Z,38.98
2023-05-10T10:37:48.368Z,38.92
2023-05-10T10:38:48.488Z,38.87
2023-05-10T10:39:49.475Z,38.94
2023-05-10T10:40:48.626Z,38.97
2023-05-10T10:41:48.975Z,39.02
2023-05-10T10:42:48.713Z,39.04
2023-05-10T10:43:48.802Z,39.05
2023-05-10T10:44:48.863Z,39.01
2023-05-10T10:45:48.950Z,39.03
2023-05-10T10:46:49.532Z,38.99
2023-05-10T10:47:49.110Z,39.04
2023-05-10T10:48:49.167Z,39.10
2023-05-10T10:49:49.203Z,39.10
2023-05-10T10:50:49.274Z,39.09
2023-05-10T10:51:49.378Z,39.12
2023-05-10T10:52:49.513Z,39.19
2023-05-10T10:53:49.501Z,39.20
2023-05-10T10:54:49.588Z,39.19
2023-05-10T10:55:50.326Z,39.14
2023-05-10T10:56:49.840Z,39.18
2023-05-10T10:57:49.987Z,39.19
2023-05-10T10:58:49.936Z,39.15
2023-05-10T10:59:50.007Z,39.09
2023-05-10T11:00:50.086Z,39.12
2023-05-10T11:01:50.498Z,39.07
2023-05-10T11:02:50.325Z,39.09
2023-05-10T11:03:50.367Z,39.05
2023-05-10T11:04:50.557Z,39.14
2023-05-10T11:05:50.531Z,39.12
2023-05-10T11:06:50.581Z,39.17
2023-05-10T11:07:50.691Z,39.08
2023-05-10T11:08:50.726Z,39.21
2023-05-10T11:09:50.989Z,39.22
2023-05-10T11:10:50.927Z,39.17
2023-05-10T11:11:50.987Z,39.25
2023-05-10T11:12:51.069Z,39.20
2023-05-10T11:13:51.720Z,39.18
2023-05-10T11:14:51.241Z,39.21
2023-05-10T11:15:51.521Z,39.26
2023-05-10T11:16:51.499Z,39.18
2023-05-10T11:17:51.503Z,39.09
2023-05-10T11:18:51.634Z,39.14
2023-05-10T11:19:51.662Z,39.13
2023-05-10T11:20:52.016Z,39.00
2023-05-10T11:21:51.826Z,39.02
2023-05-10T11:22:51.912Z,39.06
2023-05-10T11:23:51.993Z,39.00
2023-05-10T11:24:52.040Z,39.00
2023-05-10T11:25:52.188Z,38.93
2023-05-10T11:26:52.243Z,38.98
2023-05-10T11:27:53.289Z,38.97
2023-05-10T11:28:52.360Z,38.95
2023-05-10T11:29:52.431Z,38.83
2023-05-10T11:30:53.025Z,38.84
2023-05-10T11:31:52.620Z,38.89
2023-05-10T11:32:52.728Z,38.92
2023-05-10T11:33:53.773Z,38.93
2023-05-10T11:34:52.864Z,38.87
2023-05-10T11:35:52.952Z,38.88
2023-05-10T11:36:53.032Z,38.93
2023-05-10T11:37:53.112Z,38.86
2023-05-10T11:38:53.200Z,38.84
2023-05-10T11:39:53.424Z,38.87
2023-05-10T11:40:53.389Z,38.95
2023-05-10T11:41:53.453Z,38.89
2023-05-10T11:42:54.007Z,38.87
2023-05-10T11:43:53.623Z,38.94
2023-05-10T11:44:53.706Z,38.93
2023-05-10T11:45:53.850Z,38.94
2023-05-10T11:46:53.867Z,38.97
2023-05-10T11:47:53.980Z,38.93
2023-05-10T11:48:54.043Z,38.92
2023-05-10T11:49:54.122Z,38.85
2023-05-10T11:50:54.196Z,38.84
2023-05-10T11:51:54.277Z,38.80
2023-05-10T11:52:54.399Z,38.83
2023-05-10T11:53:54.429Z,38.69
2023-05-10T11:54:54.512Z,38.70
2023-05-10T11:55:54.612Z,38.69
2023-05-10T11:56:54.666Z,38.69
2023-05-10T11:57:54.750Z,38.66
2023-05-10T11:58:55.003Z,38.70
2023-05-10T11:59:54.913Z,38.65
2023-05-10T12:00:54.994Z,38.64
2023-05-10T12:01:55.503Z,38.64
2023-05-10T12:02:55.291Z,38.61
2023-05-10T12:03:55.405Z,38.58
2023-05-10T12:04:55.358Z,38.60
2023-05-10T12:05:55.379Z,38.57
2023-05-10T12:06:55.447Z,38.57
2023-05-10T12:07:55.499Z,38.57
2023-05-10T12:08:55.579Z,38.54
2023-05-10T12:09:55.662Z,38.56
2023-05-10T12:10:55.747Z,38.49
2023-05-10T12:11:56.056Z,38.47
2023-05-10T12:12:55.921Z,38.48
2023-05-10T12:14:03.381Z,38.48
2023-05-10T12:14:55.999Z,38.54
2023-05-10T12:15:56.599Z,38.53
2023-05-10T12:16:56.066Z,38.49
2023-05-10T12:17:59.765Z,38.47
2023-05-10T12:18:56.168Z,38.43
2023-05-10T12:19:56.066Z,38.46
2023-05-10T12:20:56.070Z,38.46
2023-05-10T12:21:56.087Z,38.46
2023-05-10T12:22:57.274Z,38.52
2023-05-10T12:23:56.085Z,38.49
2023-05-10T12:24:56.100Z,38.48
2023-05-10T12:25:56.125Z,38.51
2023-05-10T12:26:56.508Z,38.52
2023-05-10T12:27:56.146Z,38.52
2023-05-10T12:28:56.137Z,38.55
2023-05-10T12:29:56.140Z,38.59
2023-05-10T12:30:56.164Z,38.56
2023-05-10T12:31:56.273Z,38.56
2023-05-10T12:32:57.061Z,38.59
2023-05-10T12:33:56.190Z,38.56
2023-05-10T12:34:56.208Z,38.64
2023-05-10T12:35:56.209Z,38.56
2023-05-10T12:36:56.227Z,38.66
2023-05-10T12:37:56.250Z,38.63
2023-05-10T12:38:56.248Z,38.63
2023-05-10T12:39:56.255Z,38.64
2023-05-10T12:40:56.327Z,38.70
2023-05-10T12:41:56.302Z,38.61
2023-05-10T12:42:56.566Z,38.61
2023-05-10T12:43:56.487Z,38.63
2023-05-10T12:44:57.524Z,38.71
2023-05-10T12:45:56.647Z,38.69
2023-05-10T12:46:56.694Z,38.69
2023-05-10T12:47:56.789Z,38.64
2023-05-10T12:49:07.615Z,38.76
2023-05-10T12:49:56.815Z,38.73
2023-05-10T12:50:56.817Z,38.80
2023-05-10T12:51:56.830Z,38.69
2023-05-10T12:52:56.839Z,38.74
2023-05-10T12:53:56.851Z,38.80